Pagrindinis puslapis
METAR-TAF:

METAR-TAF

Oro uostai :

Anvik, Aliaska, Jungtinės Amerikos Valstijos

platuma: 62-38-54N, ilguma: 160-11-23W, Aukštis: 94 m

Dabartinis oras

Ataskaita buvo paskelbta 26 minutes, ne 18:56 UTC
Vėjas 3 kt iš Vakarų
Temperatūra -1°C
Drėgmė 93%
Slėgis 1020 hPa
Matomumas: 16.1 km
Apsiniaukę ne aukštis 3000 ft

METAR: PANV 281856Z AUTO 28003KT 10SM OVC030 M01/M02 A3012 RMK AO2 SLP308 T10111022 FZRANO TSNO

Laikas: 11:22 (19:22 UTC)


TAF: trūkstamas

Orai ataskaitas ir orų prognozės (METAR, TAF).

turimą stotys yra geltonos ir raudonos taškus žemėlapyje.

Perkelti pele per norėdami pamatyti stoties vardą.

Tada spustelėkite, norėdami matyti oro stebėjimo ir prognozės.

Norėdami pakeisti žemėlapį: spustelėkite ant žalios mygtukų su juodo kryžiaus žemyn,; žalią mygtuką su brūkšneliu, jei norite nutolinti; arba žalių rodyklių gretimoms žemėlapius.


METAR-TAF: